sensor_id;sensor_type;location;lat;lon;timestamp;pressure;altitude;pressure_sealevel;temperature;humidity
68474;BME280;55461;52.066;5.194;2023-01-25T00:00:33;103781.0;;;1.76;85.72
68474;BME280;55461;52.066;5.194;2023-01-25T00:02:10;103781.0;;;1.77;85.1
68474;BME280;55461;52.066;5.194;2023-01-25T00:03:46;103780.0;;;1.44;85.97
68474;BME280;55461;52.066;5.194;2023-01-25T00:06:59;103780.0;;;1.66;85.75
68474;BME280;55461;52.066;5.194;2023-01-25T00:08:37;103776.0;;;1.55;86.24
68474;BME280;55461;52.066;5.194;2023-01-25T00:10:14;103771.0;;;1.43;85.59
68474;BME280;55461;52.066;5.194;2023-01-25T00:13:29;103772.0;;;1.61;85.48
68474;BME280;55461;52.066;5.194;2023-01-25T00:15:06;103772.0;;;1.51;86.52
68474;BME280;55461;52.066;5.194;2023-01-25T00:16:42;103774.0;;;1.51;87.14
68474;BME280;55461;52.066;5.194;2023-01-25T00:18:20;103770.0;;;1.61;87.18
68474;BME280;55461;52.066;5.194;2023-01-25T00:21:33;103765.00000000001;;;1.31;86.64
68474;BME280;55461;52.066;5.194;2023-01-25T00:23:10;103763.00000000001;;;1.59;86.08
68474;BME280;55461;52.066;5.194;2023-01-25T00:24:46;103758.0;;;1.59;85.99
68474;BME280;55461;52.066;5.194;2023-01-25T00:27:58;103756.0;;;1.43;86.07
68474;BME280;55461;52.066;5.194;2023-01-25T00:29:34;103757.0;;;1.55;86.33
68474;BME280;55461;52.066;5.194;2023-01-25T00:31:16;103756.0;;;1.21;87.43
68474;BME280;55461;52.066;5.194;2023-01-25T00:33:00;103758.0;;;1.18;88.5
68474;BME280;55461;52.066;5.194;2023-01-25T00:36:40;103754.0;;;1.2;89.06
68474;BME280;55461;52.066;5.194;2023-01-25T00:38:26;103753.0;;;1.45;88.45
68474;BME280;55461;52.066;5.194;2023-01-25T00:40:07;103746.0;;;1.71;86.46
68474;BME280;55461;52.066;5.194;2023-01-25T00:41:45;103745.0;;;1.85;85.32
68474;BME280;55461;52.066;5.194;2023-01-25T00:44:57;103746.0;;;1.87;84.65
68474;BME280;55461;52.066;5.194;2023-01-25T00:46:34;103748.0;;;1.54;86.13
68474;BME280;55461;52.066;5.194;2023-01-25T00:48:11;103746.0;;;1.58;86.36
68474;BME280;55461;52.066;5.194;2023-01-25T00:49:47;103745.0;;;1.4;87.54
68474;BME280;55461;52.066;5.194;2023-01-25T00:53:00;103743.0;;;1.38;88.2
68474;BME280;55461;52.066;5.194;2023-01-25T00:54:37;103736.99999999999;;;1.41;88.57
68474;BME280;55461;52.066;5.194;2023-01-25T00:56:14;103741.00000000001;;;1.3;88.84
68474;BME280;55461;52.066;5.194;2023-01-25T00:59:27;103739.00000000001;;;1.24;89.14
68474;BME280;55461;52.066;5.194;2023-01-25T01:01:03;103734.99999999999;;;1.25;88.65
68474;BME280;55461;52.066;5.194;2023-01-25T01:02:39;103734.99999999999;;;1.45;88.8
68474;BME280;55461;52.066;5.194;2023-01-25T01:05:59;103733.0;;;1.47;88.79
68474;BME280;55461;52.066;5.194;2023-01-25T01:07:36;103730.0;;;1.51;87.7
68474;BME280;55461;52.066;5.194;2023-01-25T01:09:15;103733.99999999999;;;1.32;87.95
68474;BME280;55461;52.066;5.194;2023-01-25T01:10:57;103736.99999999999;;;1.48;87.37
68474;BME280;55461;52.066;5.194;2023-01-25T01:14:10;103734.99999999999;;;1.48;87.62
68474;BME280;55461;52.066;5.194;2023-01-25T01:15:47;103736.99999999999;;;1.37;88.44
68474;BME280;55461;52.066;5.194;2023-01-25T01:17:23;103736.99999999999;;;1.32;88.01
68474;BME280;55461;52.066;5.194;2023-01-25T01:19:00;103733.99999999999;;;1.24;87.55
68474;BME280;55461;52.066;5.194;2023-01-25T01:22:13;103736.99999999999;;;1.21;87.6
68474;BME280;55461;52.066;5.194;2023-01-25T01:23:49;103733.0;;;1.26;88.44
68474;BME280;55461;52.066;5.194;2023-01-25T01:25:25;103733.0;;;1.25;87.92
68474;BME280;55461;52.066;5.194;2023-01-25T01:28:39;103729.0;;;1.27;88.39
68474;BME280;55461;52.066;5.194;2023-01-25T01:30:16;103733.0;;;1.45;87.42
68474;BME280;55461;52.066;5.194;2023-01-25T01:31:52;103731.0;;;1.31;87.47
68474;BME280;55461;52.066;5.194;2023-01-25T01:35:06;103734.99999999999;;;1.29;87.01
68474;BME280;55461;52.066;5.194;2023-01-25T01:36:43;103734.99999999999;;;1.23;88.15
68474;BME280;55461;52.066;5.194;2023-01-25T01:38:20;103730.0;;;1.26;88.53
68474;BME280;55461;52.066;5.194;2023-01-25T01:39:57;103729.0;;;1.28;88.65
68474;BME280;55461;52.066;5.194;2023-01-25T01:43:15;103724.0;;;1.3;88.47
68474;BME280;55461;52.066;5.194;2023-01-25T01:44:53;103722.0;;;1.28;88.31
68474;BME280;55461;52.066;5.194;2023-01-25T01:46:33;103723.0;;;1.29;88.58
68474;BME280;55461;52.066;5.194;2023-01-25T01:49:54;103724.0;;;1.3;88.71
68474;BME280;55461;52.066;5.194;2023-01-25T01:51:42;103721.0;;;1.42;88.17
68474;BME280;55461;52.066;5.194;2023-01-25T01:53:22;103724.0;;;1.51;87.68
68474;BME280;55461;52.066;5.194;2023-01-25T01:55:02;103725.0;;;1.51;87.7
68474;BME280;55461;52.066;5.194;2023-01-25T01:56:49;103722.0;;;1.44;87.68
68474;BME280;55461;52.066;5.194;2023-01-25T02:00:10;103721.0;;;1.35;88.34
68474;BME280;55461;52.066;5.194;2023-01-25T02:01:49;103717.0;;;1.55;87.29
68474;BME280;55461;52.066;5.194;2023-01-25T02:03:26;103729.0;;;1.46;87.11
68474;BME280;55461;52.066;5.194;2023-01-25T02:05:08;103722.0;;;1.37;88.44
68474;BME280;55461;52.066;5.194;2023-01-25T02:08:31;103718.0;;;1.36;88.53
68474;BME280;55461;52.066;5.194;2023-01-25T02:10:10;103720.0;;;1.24;88.48
68474;BME280;55461;52.066;5.194;2023-01-25T02:11:50;103721.0;;;1.36;88.98
68474;BME280;55461;52.066;5.194;2023-01-25T02:13:27;103716.00000000001;;;1.44;88.62
68474;BME280;55461;52.066;5.194;2023-01-25T02:16:43;103715.00000000001;;;1.39;88.72
68474;BME280;55461;52.066;5.194;2023-01-25T02:18:19;103711.99999999999;;;1.42;88.25
68474;BME280;55461;52.066;5.194;2023-01-25T02:19:59;103708.99999999999;;;1.36;87.74
68474;BME280;55461;52.066;5.194;2023-01-25T02:25:06;103704.0;;;1.46;87.95
68474;BME280;55461;52.066;5.194;2023-01-25T02:26:45;103707.0;;;1.45;86.56
68474;BME280;55461;52.066;5.194;2023-01-25T02:28:24;103708.0;;;1.33;87.92
68474;BME280;55461;52.066;5.194;2023-01-25T02:31:43;103706.0;;;1.29;88.12
68474;BME280;55461;52.066;5.194;2023-01-25T02:33:21;103703.0;;;1.22;88.38
68474;BME280;55461;52.066;5.194;2023-01-25T02:34:58;103703.0;;;1.2;88.73
68474;BME280;55461;52.066;5.194;2023-01-25T02:36:34;103699.0;;;1.3;88.28
68474;BME280;55461;52.066;5.194;2023-01-25T02:39:51;103700.0;;;1.28;88.42
68474;BME280;55461;52.066;5.194;2023-01-25T02:41:31;103698.0;;;1.3;88.17
68474;BME280;55461;52.066;5.194;2023-01-25T02:43:10;103699.0;;;1.45;87.34
68474;BME280;55461;52.066;5.194;2023-01-25T02:44:47;103696.0;;;1.4;87.18
68474;BME280;55461;52.066;5.194;2023-01-25T02:48:06;103694.0;;;1.41;86.96
68474;BME280;55461;52.066;5.194;2023-01-25T02:49:41;103696.0;;;1.22;87.39
68474;BME280;55461;52.066;5.194;2023-01-25T02:51:18;103695.0;;;1.2;87.57
68474;BME280;55461;52.066;5.194;2023-01-25T02:54:31;103696.0;;;1.15;87.04
68474;BME280;55461;52.066;5.194;2023-01-25T02:56:08;103695.0;;;0.93;87.29
68474;BME280;55461;52.066;5.194;2023-01-25T02:57:44;103690.00000000001;;;1.0;88.02
68474;BME280;55461;52.066;5.194;2023-01-25T03:00:58;103691.00000000001;;;0.99;88.42
68474;BME280;55461;52.066;5.194;2023-01-25T03:02:35;103682.0;;;1.05;88.35
68474;BME280;55461;52.066;5.194;2023-01-25T03:04:11;103680.0;;;0.93;88.03
68474;BME280;55461;52.066;5.194;2023-01-25T03:05:48;103678.0;;;1.05;88.54
68474;BME280;55461;52.066;5.194;2023-01-25T03:09:01;103675.0;;;1.08;88.93
68474;BME280;55461;52.066;5.194;2023-01-25T03:10:38;103675.0;;;0.98;88.65
68474;BME280;55461;52.066;5.194;2023-01-25T03:12:14;103672.0;;;1.0;88.58
68474;BME280;55461;52.066;5.194;2023-01-25T03:15:27;103670.0;;;0.91;89.01
68474;BME280;55461;52.066;5.194;2023-01-25T03:17:03;103671.0;;;1.02;88.99
68474;BME280;55461;52.066;5.194;2023-01-25T03:18:41;103668.0;;;1.03;88.01
68474;BME280;55461;52.066;5.194;2023-01-25T03:20:17;103665.00000000001;;;1.02;87.53
68474;BME280;55461;52.066;5.194;2023-01-25T03:23:30;103671.0;;;0.94;88.56
68474;BME280;55461;52.066;5.194;2023-01-25T03:25:07;103673.0;;;1.14;88.53
68474;BME280;55461;52.066;5.194;2023-01-25T03:27:17;103670.0;;;1.08;88.37
68474;BME280;55461;52.066;5.194;2023-01-25T03:28:53;103667.0;;;1.14;88.48
68474;BME280;55461;52.066;5.194;2023-01-25T03:32:07;103667.0;;;1.1;87.99
68474;BME280;55461;52.066;5.194;2023-01-25T03:33:44;103656.0;;;1.14;88.54
68474;BME280;55461;52.066;5.194;2023-01-25T03:35:21;103653.0;;;1.22;88.04
68474;BME280;55461;52.066;5.194;2023-01-25T03:38:33;103647.0;;;1.12;87.49
68474;BME280;55461;52.066;5.194;2023-01-25T03:40:11;103649.0;;;1.2;87.52
68474;BME280;55461;52.066;5.194;2023-01-25T03:41:48;103645.0;;;1.16;87.38
68474;BME280;55461;52.066;5.194;2023-01-25T03:43:24;103644.0;;;1.03;88.16
68474;BME280;55461;52.066;5.194;2023-01-25T03:46:36;103643.0;;;1.16;87.98
68474;BME280;55461;52.066;5.194;2023-01-25T03:48:12;103642.0;;;1.21;87.66
68474;BME280;55461;52.066;5.194;2023-01-25T03:49:49;103638.00000000001;;;1.17;87.93
68474;BME280;55461;52.066;5.194;2023-01-25T03:53:06;103633.0;;;1.18;87.57
68474;BME280;55461;52.066;5.194;2023-01-25T03:54:42;103631.0;;;1.18;87.57
68474;BME280;55461;52.066;5.194;2023-01-25T03:56:19;103627.0;;;1.25;86.6
68474;BME280;55461;52.066;5.194;2023-01-25T03:57:55;103622.0;;;1.18;86.7
68474;BME280;55461;52.066;5.194;2023-01-25T04:01:08;103622.0;;;1.28;86.38
68474;BME280;55461;52.066;5.194;2023-01-25T04:02:44;103628.0;;;1.18;86.26
68474;BME280;55461;52.066;5.194;2023-01-25T04:04:20;103630.0;;;1.15;87.01
68474;BME280;55461;52.066;5.194;2023-01-25T04:07:33;103634.99999999999;;;1.16;87.25
68474;BME280;55461;52.066;5.194;2023-01-25T04:09:10;103636.99999999999;;;1.11;87.43
68474;BME280;55461;52.066;5.194;2023-01-25T04:10:49;103633.99999999999;;;0.86;87.66
68474;BME280;55461;52.066;5.194;2023-01-25T04:14:02;103633.99999999999;;;0.87;87.57
68474;BME280;55461;52.066;5.194;2023-01-25T04:15:38;103634.99999999999;;;0.88;87.6
68474;BME280;55461;52.066;5.194;2023-01-25T04:17:14;103638.00000000001;;;0.85;88.92
68474;BME280;55461;52.066;5.194;2023-01-25T04:20:27;103638.00000000001;;;0.87;88.64
68474;BME280;55461;52.066;5.194;2023-01-25T04:22:04;103632.0;;;0.89;88.79
68474;BME280;55461;52.066;5.194;2023-01-25T04:23:41;103634.99999999999;;;0.94;88.95
68474;BME280;55461;52.066;5.194;2023-01-25T04:25:17;103633.0;;;0.97;88.97
68474;BME280;55461;52.066;5.194;2023-01-25T04:28:31;103632.0;;;1.02;88.27
68474;BME280;55461;52.066;5.194;2023-01-25T04:30:09;103629.0;;;1.01;87.65
68474;BME280;55461;52.066;5.194;2023-01-25T04:31:45;103623.0;;;0.96;87.61
68474;BME280;55461;52.066;5.194;2023-01-25T04:34:58;103621.0;;;1.03;87.33
68474;BME280;55461;52.066;5.194;2023-01-25T04:36:34;103621.0;;;1.07;87.57
68474;BME280;55461;52.066;5.194;2023-01-25T04:38:11;103620.0;;;0.95;88.08
68474;BME280;55461;52.066;5.194;2023-01-25T04:39:48;103616.00000000001;;;0.93;88.08
68474;BME280;55461;52.066;5.194;2023-01-25T04:43:05;103616.00000000001;;;0.97;87.83
68474;BME280;55461;52.066;5.194;2023-01-25T04:44:41;103609.99999999999;;;0.96;87.61
68474;BME280;55461;52.066;5.194;2023-01-25T04:46:17;103604.0;;;0.97;87.75
68474;BME280;55461;52.066;5.194;2023-01-25T04:49:33;103605.0;;;0.98;87.27
68474;BME280;55461;52.066;5.194;2023-01-25T04:51:09;103602.0;;;0.95;87.18
68474;BME280;55461;52.066;5.194;2023-01-25T04:52:45;103596.0;;;0.94;87.33
68474;BME280;55461;52.066;5.194;2023-01-25T04:55:57;103596.0;;;0.92;87.44
68474;BME280;55461;52.066;5.194;2023-01-25T04:57:34;103598.0;;;0.93;87.53
68474;BME280;55461;52.066;5.194;2023-01-25T04:59:10;103597.0;;;0.97;86.66
68474;BME280;55461;52.066;5.194;2023-01-25T05:00:46;103600.0;;;0.93;87.05
68474;BME280;55461;52.066;5.194;2023-01-25T05:03:58;103595.0;;;0.92;86.94
68474;BME280;55461;52.066;5.194;2023-01-25T05:05:34;103588.00000000001;;;0.89;87.18
68474;BME280;55461;52.066;5.194;2023-01-25T05:07:10;103592.0;;;1.03;86.95
68474;BME280;55461;52.066;5.194;2023-01-25T05:10:23;103592.0;;;0.98;86.68
68474;BME280;55461;52.066;5.194;2023-01-25T05:11:59;103591.00000000001;;;0.95;86.59
68474;BME280;55461;52.066;5.194;2023-01-25T05:13:35;103595.0;;;0.95;86.73
68474;BME280;55461;52.066;5.194;2023-01-25T05:16:49;103594.0;;;1.03;86.52
68474;BME280;55461;52.066;5.194;2023-01-25T05:18:25;103596.0;;;0.98;86.2
68474;BME280;55461;52.066;5.194;2023-01-25T05:20:01;103597.0;;;0.93;86.56
68474;BME280;55461;52.066;5.194;2023-01-25T05:22:12;103593.0;;;0.85;86.65
68474;BME280;55461;52.066;5.194;2023-01-25T05:23:49;103591.00000000001;;;0.9;86.77
68474;BME280;55461;52.066;5.194;2023-01-25T05:29:03;103591.00000000001;;;0.9;86.48
68474;BME280;55461;52.066;5.194;2023-01-25T05:30:40;103589.00000000001;;;0.83;86.61
68474;BME280;55461;52.066;5.194;2023-01-25T05:32:17;103583.99999999999;;;0.84;87.12
68474;BME280;55461;52.066;5.194;2023-01-25T05:35:31;103581.0;;;0.88;86.97
68474;BME280;55461;52.066;5.194;2023-01-25T05:37:09;103578.0;;;0.96;86.06
68474;BME280;55461;52.066;5.194;2023-01-25T05:38:47;103580.0;;;0.89;86.12
68474;BME280;55461;52.066;5.194;2023-01-25T05:41:59;103582.0;;;0.81;85.91
68474;BME280;55461;52.066;5.194;2023-01-25T05:43:35;103579.0;;;0.82;85.72
68474;BME280;55461;52.066;5.194;2023-01-25T05:45:11;103582.0;;;0.79;86.34
68474;BME280;55461;52.066;5.194;2023-01-25T05:46:48;103579.0;;;0.79;86.79
68474;BME280;55461;52.066;5.194;2023-01-25T05:50:01;103584.99999999999;;;0.73;87.28
68474;BME280;55461;52.066;5.194;2023-01-25T05:51:38;103584.99999999999;;;0.78;87.28
68474;BME280;55461;52.066;5.194;2023-01-25T05:53:16;103583.0;;;0.8;86.94
68474;BME280;55461;52.066;5.194;2023-01-25T05:56:28;103582.0;;;0.81;86.6
68474;BME280;55461;52.066;5.194;2023-01-25T05:58:05;103583.99999999999;;;0.82;86.52
68474;BME280;55461;52.066;5.194;2023-01-25T05:59:41;103583.99999999999;;;0.89;86.42
68474;BME280;55461;52.066;5.194;2023-01-25T06:02:59;103582.0;;;0.95;85.69
68474;BME280;55461;52.066;5.194;2023-01-25T06:04:35;103589.00000000001;;;0.92;86.1
68474;BME280;55461;52.066;5.194;2023-01-25T06:06:11;103590.00000000001;;;0.73;86.43
68474;BME280;55461;52.066;5.194;2023-01-25T06:11:06;103592.0;;;0.54;86.76
68474;BME280;55461;52.066;5.194;2023-01-25T06:12:42;103598.0;;;0.66;85.79
68474;BME280;55461;52.066;5.194;2023-01-25T06:14:18;103594.0;;;0.54;85.92
68474;BME280;55461;52.066;5.194;2023-01-25T06:17:32;103596.0;;;0.62;85.52
68474;BME280;55461;52.066;5.194;2023-01-25T06:19:11;103599.0;;;0.51;87.52
68474;BME280;55461;52.066;5.194;2023-01-25T06:20:48;103596.0;;;0.58;87.83
68474;BME280;55461;52.066;5.194;2023-01-25T06:22:25;103596.0;;;0.58;87.78
68474;BME280;55461;52.066;5.194;2023-01-25T06:25:37;103594.0;;;0.61;87.66
68474;BME280;55461;52.066;5.194;2023-01-25T06:27:13;103593.0;;;0.71;87.33
68474;BME280;55461;52.066;5.194;2023-01-25T06:28:49;103595.0;;;0.59;87.15
68474;BME280;55461;52.066;5.194;2023-01-25T06:32:02;103595.0;;;0.62;87.8
68474;BME280;55461;52.066;5.194;2023-01-25T06:33:39;103592.0;;;0.62;87.22
68474;BME280;55461;52.066;5.194;2023-01-25T06:35:16;103596.0;;;0.6;87.19
68474;BME280;55461;52.066;5.194;2023-01-25T06:38:30;103595.0;;;0.68;87.65
68474;BME280;55461;52.066;5.194;2023-01-25T06:40:08;103598.0;;;0.67;87.82
68474;BME280;55461;52.066;5.194;2023-01-25T06:41:46;103595.0;;;0.67;87.63
68474;BME280;55461;52.066;5.194;2023-01-25T06:43:22;103592.0;;;0.66;87.79
68474;BME280;55461;52.066;5.194;2023-01-25T06:46:34;103583.99999999999;;;0.73;87.09
68474;BME280;55461;52.066;5.194;2023-01-25T06:48:10;103583.0;;;0.68;87.23
68474;BME280;55461;52.066;5.194;2023-01-25T06:49:46;103588.00000000001;;;0.61;87.29
68474;BME280;55461;52.066;5.194;2023-01-25T06:52:59;103583.99999999999;;;0.65;87.7
68474;BME280;55461;52.066;5.194;2023-01-25T06:54:35;103583.99999999999;;;0.7;87.63
68474;BME280;55461;52.066;5.194;2023-01-25T06:56:13;103583.0;;;0.62;87.87
68474;BME280;55461;52.066;5.194;2023-01-25T06:57:50;103588.00000000001;;;0.89;86.96
68474;BME280;55461;52.066;5.194;2023-01-25T07:01:05;103588.00000000001;;;0.96;86.45
68474;BME280;55461;52.066;5.194;2023-01-25T07:02:42;103584.99999999999;;;0.88;86.5
68474;BME280;55461;52.066;5.194;2023-01-25T07:04:18;103590.00000000001;;;0.85;86.37
68474;BME280;55461;52.066;5.194;2023-01-25T07:07:34;103589.00000000001;;;0.91;86.87
68474;BME280;55461;52.066;5.194;2023-01-25T07:09:12;103584.99999999999;;;0.95;86.4
68474;BME280;55461;52.066;5.194;2023-01-25T07:10:53;103574.0;;;0.9;86.33
68474;BME280;55461;52.066;5.194;2023-01-25T07:12:30;103572.0;;;0.86;86.15
68474;BME280;55461;52.066;5.194;2023-01-25T07:15:42;103567.0;;;0.87;86.42
68474;BME280;55461;52.066;5.194;2023-01-25T07:17:18;103567.0;;;0.8;86.42
68474;BME280;55461;52.066;5.194;2023-01-25T07:18:54;103567.0;;;0.81;86.62
68474;BME280;55461;52.066;5.194;2023-01-25T07:22:07;103566.00000000001;;;0.92;85.41
68474;BME280;55461;52.066;5.194;2023-01-25T07:23:43;103566.00000000001;;;0.62;85.93
68474;BME280;55461;52.066;5.194;2023-01-25T07:25:19;103567.0;;;0.65;87.04
68474;BME280;55461;52.066;5.194;2023-01-25T07:28:32;103567.0;;;0.66;85.99
68474;BME280;55461;52.066;5.194;2023-01-25T07:30:10;103569.0;;;0.48;86.02
68474;BME280;55461;52.066;5.194;2023-01-25T07:31:45;103564.00000000001;;;0.69;86.16
68474;BME280;55461;52.066;5.194;2023-01-25T07:34:59;103566.00000000001;;;0.73;86.22
68474;BME280;55461;52.066;5.194;2023-01-25T07:36:36;103561.99999999999;;;0.69;86.74
68474;BME280;55461;52.066;5.194;2023-01-25T07:38:12;103565.00000000001;;;0.71;86.84
68474;BME280;55461;52.066;5.194;2023-01-25T07:39:49;103558.0;;;0.7;87.01
68474;BME280;55461;52.066;5.194;2023-01-25T07:43:03;103558.0;;;0.78;86.69
68474;BME280;55461;52.066;5.194;2023-01-25T07:44:38;103556.0;;;0.49;87.15
68474;BME280;55461;52.066;5.194;2023-01-25T07:46:16;103559.99999999999;;;0.47;88.25
68474;BME280;55461;52.066;5.194;2023-01-25T07:49:29;103554.0;;;0.48;88.27
68474;BME280;55461;52.066;5.194;2023-01-25T07:51:22;103551.0;;;0.59;87.97
68474;BME280;55461;52.066;5.194;2023-01-25T07:52:59;103556.0;;;0.64;87.97
68474;BME280;55461;52.066;5.194;2023-01-25T07:54:35;103555.0;;;0.62;87.83
68474;BME280;55461;52.066;5.194;2023-01-25T07:57:47;103551.0;;;0.78;87.1
68474;BME280;55461;52.066;5.194;2023-01-25T07:59:24;103549.0;;;0.85;86.98
68474;BME280;55461;52.066;5.194;2023-01-25T08:01:09;103546.0;;;0.84;86.54
68474;BME280;55461;52.066;5.194;2023-01-25T08:02:48;103541.00000000001;;;0.8;86.95
68474;BME280;55461;52.066;5.194;2023-01-25T08:06:05;103534.99999999999;;;0.9;86.26
68474;BME280;55461;52.066;5.194;2023-01-25T08:07:41;103533.99999999999;;;0.95;85.94
68474;BME280;55461;52.066;5.194;2023-01-25T08:09:19;103528.0;;;0.8;86.5
68474;BME280;55461;52.066;5.194;2023-01-25T08:12:31;103529.0;;;0.69;86.52
68474;BME280;55461;52.066;5.194;2023-01-25T08:14:10;103530.0;;;0.53;86.52
68474;BME280;55461;52.066;5.194;2023-01-25T08:15:52;103532.0;;;0.49;86.52
68474;BME280;55461;52.066;5.194;2023-01-25T08:17:31;103534.99999999999;;;0.39;86.36
68474;BME280;55461;52.066;5.194;2023-01-25T08:20:46;103542.0;;;0.3;86.93
68474;BME280;55461;52.066;5.194;2023-01-25T08:22:23;103544.0;;;0.3;87.18
68474;BME280;55461;52.066;5.194;2023-01-25T08:24:02;103546.0;;;0.33;86.78
68474;BME280;55461;52.066;5.194;2023-01-25T08:27:15;103542.0;;;0.1;87.8
68474;BME280;55461;52.066;5.194;2023-01-25T08:28:53;103543.0;;;0.23;87.78
68474;BME280;55461;52.066;5.194;2023-01-25T08:30:30;103542.0;;;0.15;87.65
68474;BME280;55461;52.066;5.194;2023-01-25T08:32:07;103543.0;;;0.03;87.97
68474;BME280;55461;52.066;5.194;2023-01-25T08:35:22;103552.0;;;0.2;88.93
68474;BME280;55461;52.066;5.194;2023-01-25T08:36:58;103547.0;;;0.24;88.79
68474;BME280;55461;52.066;5.194;2023-01-25T08:38:36;103547.0;;;0.32;87.51
68474;BME280;55461;52.066;5.194;2023-01-25T08:43:30;103542.0;;;0.35;88.49
68474;BME280;55461;52.066;5.194;2023-01-25T08:45:07;103539.00000000001;;;0.33;88.29
68474;BME280;55461;52.066;5.194;2023-01-25T08:46:44;103539.00000000001;;;0.33;88.24
68474;BME280;55461;52.066;5.194;2023-01-25T08:49:57;103533.99999999999;;;0.41;87.65
68474;BME280;55461;52.066;5.194;2023-01-25T08:51:34;103530.0;;;0.45;87.75
68474;BME280;55461;52.066;5.194;2023-01-25T08:53:10;103524.0;;;0.58;87.55
68474;BME280;55461;52.066;5.194;2023-01-25T08:56:23;103526.0;;;0.53;87.6
68474;BME280;55461;52.066;5.194;2023-01-25T08:57:59;103518.0;;;0.49;87.58
68474;BME280;55461;52.066;5.194;2023-01-25T08:59:35;103518.0;;;0.6;87.54
68474;BME280;55461;52.066;5.194;2023-01-25T09:02:50;103513.00000000001;;;0.64;86.97
68474;BME280;55461;52.066;5.194;2023-01-25T09:04:27;103508.99999999999;;;0.74;86.67
68474;BME280;55461;52.066;5.194;2023-01-25T09:06:04;103514.00000000001;;;0.72;86.6
68474;BME280;55461;52.066;5.194;2023-01-25T09:07:41;103513.00000000001;;;0.8;86.18
68474;BME280;55461;52.066;5.194;2023-01-25T09:10:53;103511.99999999999;;;0.74;86.23
68474;BME280;55461;52.066;5.194;2023-01-25T09:12:30;103509.99999999999;;;0.77;86.19
68474;BME280;55461;52.066;5.194;2023-01-25T09:14:07;103504.0;;;0.74;85.97
68474;BME280;55461;52.066;5.194;2023-01-25T09:17:20;103509.99999999999;;;0.67;85.3
68474;BME280;55461;52.066;5.194;2023-01-25T09:18:58;103514.00000000001;;;0.63;85.71
68474;BME280;55461;52.066;5.194;2023-01-25T09:20:37;103511.99999999999;;;0.58;85.74
68474;BME280;55461;52.066;5.194;2023-01-25T09:22:13;103508.0;;;0.54;86.64
68474;BME280;55461;52.066;5.194;2023-01-25T09:25:29;103511.99999999999;;;0.58;86.68
68474;BME280;55461;52.066;5.194;2023-01-25T09:27:05;103508.99999999999;;;0.58;87.02
68474;BME280;55461;52.066;5.194;2023-01-25T09:28:44;103507.0;;;0.59;87.04
68474;BME280;55461;52.066;5.194;2023-01-25T09:31:57;103503.0;;;0.53;86.17
68474;BME280;55461;52.066;5.194;2023-01-25T09:33:36;103511.99999999999;;;0.3;87.76
68474;BME280;55461;52.066;5.194;2023-01-25T09:35:13;103514.00000000001;;;0.46;87.6
68474;BME280;55461;52.066;5.194;2023-01-25T09:38:25;103511.99999999999;;;0.35;86.74
68474;BME280;55461;52.066;5.194;2023-01-25T09:40:04;103508.99999999999;;;0.35;86.54
68474;BME280;55461;52.066;5.194;2023-01-25T09:41:59;103502.0;;;0.15;87.25
68474;BME280;55461;52.066;5.194;2023-01-25T09:44:57;103501.0;;;0.19;86.62
68474;BME280;55461;52.066;5.194;2023-01-25T09:47:09;103496.0;;;0.21;86.75
68474;BME280;55461;52.066;5.194;2023-01-25T09:48:58;103494.0;;;0.21;87.28
68474;BME280;55461;52.066;5.194;2023-01-25T09:50:51;103492.0;;;0.29;87.12
68474;BME280;55461;52.066;5.194;2023-01-25T09:52:54;103492.0;;;0.08;87.62
68474;BME280;55461;52.066;5.194;2023-01-25T09:54:44;103492.0;;;-0.02;88.25
68474;BME280;55461;52.066;5.194;2023-01-25T09:56:24;103491.00000000001;;;0.0;88.33
68474;BME280;55461;52.066;5.194;2023-01-25T09:58:03;103492.0;;;0.15;88.56
68474;BME280;55461;52.066;5.194;2023-01-25T10:01:28;103492.0;;;0.2;88.22
68474;BME280;55461;52.066;5.194;2023-01-25T10:03:14;103491.00000000001;;;0.17;88.03
68474;BME280;55461;52.066;5.194;2023-01-25T10:04:58;103486.99999999999;;;0.15;89.05
68474;BME280;55461;52.066;5.194;2023-01-25T10:06:40;103481.0;;;0.23;88.76
68474;BME280;55461;52.066;5.194;2023-01-25T10:08:25;103477.0;;;0.21;88.74
68474;BME280;55461;52.066;5.194;2023-01-25T10:11:47;103468.0;;;0.22;88.58
68474;BME280;55461;52.066;5.194;2023-01-25T10:13:24;103459.99999999999;;;0.26;89.11
68474;BME280;55461;52.066;5.194;2023-01-25T10:15:01;103459.99999999999;;;0.36;88.82
68474;BME280;55461;52.066;5.194;2023-01-25T10:16:56;103458.0;;;0.29;89.03
68474;BME280;55461;52.066;5.194;2023-01-25T10:20:34;103457.0;;;0.35;88.86
68474;BME280;55461;52.066;5.194;2023-01-25T10:22:18;103458.99999999999;;;0.34;88.64
68474;BME280;55461;52.066;5.194;2023-01-25T10:24:07;103454.0;;;0.32;87.85
68474;BME280;55461;52.066;5.194;2023-01-25T10:27:38;103446.0;;;0.4;88.24
68474;BME280;55461;52.066;5.194;2023-01-25T10:29:20;103443.0;;;0.3;88.12
68474;BME280;55461;52.066;5.194;2023-01-25T10:32:39;103448.0;;;0.12;88.82
68474;BME280;55461;52.066;5.194;2023-01-25T10:34:18;103443.0;;;0.17;88.97
68474;BME280;55461;52.066;5.194;2023-01-25T10:35:58;103436.99999999999;;;0.24;88.96
68474;BME280;55461;52.066;5.194;2023-01-25T10:37:37;103440.00000000001;;;0.15;89.69
68474;BME280;55461;52.066;5.194;2023-01-25T10:40:56;103433.99999999999;;;0.13;88.96
68474;BME280;55461;52.066;5.194;2023-01-25T10:42:47;103427.0;;;-0.03;89.44
68474;BME280;55461;52.066;5.194;2023-01-25T10:44:37;103422.0;;;0.11;89.34
68474;BME280;55461;52.066;5.194;2023-01-25T10:46:19;103414.00000000001;;;0.23;89.49
68474;BME280;55461;52.066;5.194;2023-01-25T10:49:41;103418.0;;;0.29;89.99
68474;BME280;55461;52.066;5.194;2023-01-25T10:53:22;103419.0;;;0.26;88.95
68474;BME280;55461;52.066;5.194;2023-01-25T10:55:10;103414.00000000001;;;0.36;88.23
68474;BME280;55461;52.066;5.194;2023-01-25T10:56:51;103408.0;;;0.41;88.5
68474;BME280;55461;52.066;5.194;2023-01-25T10:58:29;103401.0;;;0.26;88.12